createdAt,value
2018-06-15T00:06:20.256Z,55.30
2018-06-15T00:08:49.804Z,55.30
2018-06-15T00:13:48.532Z,55.30
2018-06-15T00:16:18.134Z,55.30
2018-06-15T00:18:47.720Z,55.30
2018-06-15T00:23:46.662Z,55.30
2018-06-15T00:31:15.138Z,55.30
2018-06-15T00:33:44.750Z,55.30
2018-06-15T00:36:14.426Z,55.30
2018-06-15T00:38:43.941Z,55.30
2018-06-15T00:41:13.544Z,55.30
2018-06-15T00:46:12.385Z,55.30
2018-06-15T00:48:41.943Z,55.20
2018-06-15T00:53:40.815Z,55.20
2018-06-15T01:01:08.704Z,55.20
2018-06-15T01:08:36.664Z,55.20
2018-06-15T01:18:33.999Z,55.20
2018-06-15T01:23:32.782Z,55.20
2018-06-15T01:26:02.397Z,55.20
2018-06-15T01:28:32.534Z,55.20
2018-06-15T01:31:02.113Z,55.20
2018-06-15T01:36:00.945Z,55.20
2018-06-15T01:43:28.901Z,55.20
2018-06-15T01:48:27.559Z,55.20
2018-06-15T01:50:57.154Z,55.20
2018-06-15T01:55:55.861Z,55.20
2018-06-15T01:58:25.503Z,55.20
2018-06-15T02:00:55.092Z,55.20
2018-06-15T02:05:53.806Z,55.30
2018-06-15T02:10:52.569Z,55.20
2018-06-15T02:15:51.306Z,55.20
2018-06-15T02:23:19.316Z,55.20
2018-06-15T02:28:18.101Z,55.20
2018-06-15T02:30:47.716Z,55.20
2018-06-15T02:33:17.323Z,55.30
2018-06-15T02:35:46.981Z,55.30
2018-06-15T02:38:17.021Z,55.30
2018-06-15T02:40:46.605Z,55.30
2018-06-15T02:43:16.190Z,55.20
2018-06-15T02:48:14.956Z,55.30
2018-06-15T02:50:44.633Z,55.20
2018-06-15T02:58:12.650Z,55.20
2018-06-15T03:00:42.630Z,55.20
2018-06-15T03:03:12.267Z,55.20
2018-06-15T03:05:41.930Z,55.30
2018-06-15T03:08:11.518Z,55.20
2018-06-15T03:10:41.274Z,55.20
2018-06-15T03:15:40.169Z,55.30
2018-06-15T03:20:38.934Z,55.30
2018-06-15T03:23:08.624Z,55.30
2018-06-15T03:25:38.267Z,55.30
2018-06-15T03:35:35.300Z,55.30
2018-06-15T03:38:04.992Z,55.30
2018-06-15T03:43:03.661Z,55.30
2018-06-15T03:45:33.237Z,55.30
2018-06-15T03:50:31.988Z,55.30
2018-06-15T03:53:01.579Z,55.30
2018-06-15T03:58:00.382Z,55.30
2018-06-15T04:02:59.065Z,55.20
2018-06-15T04:05:28.650Z,55.20
2018-06-15T04:10:27.448Z,55.20
2018-06-15T04:12:57.091Z,55.20
2018-06-15T04:18:03.395Z,55.20
2018-06-15T04:23:02.437Z,55.20
2018-06-15T04:33:00.628Z,55.20
2018-06-15T04:35:30.259Z,55.20
2018-06-15T04:40:29.095Z,55.20
2018-06-15T04:42:58.716Z,55.20
2018-06-15T04:47:57.446Z,55.20
2018-06-15T04:50:27.060Z,55.20
2018-06-15T04:52:56.688Z,55.20
2018-06-15T04:55:26.265Z,55.20
2018-06-15T04:57:55.900Z,55.20
2018-06-15T05:00:25.455Z,55.20
2018-06-15T05:02:55.070Z,55.20
2018-06-15T05:05:24.675Z,55.20
2018-06-15T05:07:54.349Z,55.20
2018-06-15T05:12:53.035Z,55.10
2018-06-15T05:15:22.607Z,55.10
2018-06-15T05:17:52.212Z,55.10
2018-06-15T05:22:50.995Z,55.10
2018-06-15T05:25:20.570Z,55.10
2018-06-15T05:30:19.413Z,55.10
2018-06-15T05:32:49.031Z,55.00
2018-06-15T05:35:18.675Z,55.10
2018-06-15T05:37:48.223Z,55.10
2018-06-15T05:40:17.811Z,55.10
2018-06-15T05:45:16.544Z,55.00
2018-06-15T05:47:46.257Z,55.00
2018-06-15T05:50:15.830Z,55.00
2018-06-15T05:55:14.663Z,55.00
2018-06-15T05:57:44.296Z,55.00
2018-06-15T06:05:12.249Z,55.00
2018-06-15T06:07:41.829Z,55.00
2018-06-15T06:12:40.640Z,55.00
2018-06-15T06:15:10.322Z,55.00
2018-06-15T06:17:39.929Z,55.00
2018-06-15T06:25:08.819Z,54.90
2018-06-15T06:27:38.372Z,54.90
2018-06-15T06:32:37.127Z,54.90
2018-06-15T06:35:06.702Z,55.00
2018-06-15T06:37:36.385Z,54.90
2018-06-15T06:42:35.309Z,54.90
2018-06-15T06:47:34.082Z,54.90
2018-06-15T06:50:03.660Z,54.90
2018-06-15T06:52:33.440Z,54.90
2018-06-15T06:55:03.171Z,54.90
2018-06-15T07:00:04.553Z,54.90
2018-06-15T07:02:34.145Z,54.90
2018-06-15T07:05:03.844Z,54.90
2018-06-15T07:07:33.537Z,54.90
2018-06-15T07:12:32.352Z,54.90
2018-06-15T07:15:01.940Z,54.80
2018-06-15T07:20:00.799Z,54.80
2018-06-15T07:22:30.486Z,54.80
2018-06-15T07:27:29.312Z,54.80
2018-06-15T07:29:58.930Z,54.80
2018-06-15T07:32:28.584Z,54.70
2018-06-15T07:37:27.629Z,54.80
2018-06-15T07:39:57.266Z,54.80
2018-06-15T07:42:27.044Z,54.70
2018-06-15T07:47:26.090Z,54.70
2018-06-15T07:49:55.707Z,54.70
2018-06-15T07:52:25.303Z,54.70
2018-06-15T07:54:54.921Z,54.70
2018-06-15T07:59:53.952Z,54.70
2018-06-15T08:02:23.583Z,54.70
2018-06-15T08:04:53.272Z,54.60
2018-06-15T08:07:22.895Z,54.60
2018-06-15T08:09:52.473Z,54.60
2018-06-15T08:12:22.078Z,54.60
2018-06-15T08:19:50.007Z,54.60
2018-06-15T08:22:19.804Z,54.60
2018-06-15T08:24:49.426Z,54.60
2018-06-15T08:27:19.081Z,54.60
2018-06-15T08:40:15.236Z,53.20
2018-06-15T08:47:43.171Z,52.40
2018-06-15T08:50:12.700Z,52.50
2018-06-15T08:52:42.304Z,51.90
2018-06-15T08:55:11.848Z,52.50
2018-06-15T09:05:08.835Z,52.70
2018-06-15T09:07:38.380Z,52.50
2018-06-15T09:10:08.366Z,52.40
2018-06-15T09:15:07.144Z,52.40
2018-06-15T09:20:05.853Z,52.20
2018-06-15T09:22:35.454Z,52.00
2018-06-15T09:27:34.124Z,52.10
2018-06-15T09:30:03.722Z,51.70
2018-06-15T09:37:31.947Z,51.80
2018-06-15T09:47:29.767Z,51.90
2018-06-15T09:49:59.315Z,51.90
2018-06-15T09:52:28.868Z,52.10
2018-06-15T09:57:27.499Z,51.70
2018-06-15T10:02:26.229Z,51.80
2018-06-15T10:14:52.528Z,51.30
2018-06-15T10:19:51.236Z,51.60
2018-06-15T10:27:19.049Z,51.10
2018-06-15T10:34:46.737Z,51.00
2018-06-15T10:37:16.324Z,52.00
2018-06-15T10:39:45.860Z,51.90
2018-06-15T10:42:15.870Z,52.40
2018-06-15T10:44:45.467Z,50.80
2018-06-15T10:49:44.087Z,50.10
2018-06-15T10:54:42.837Z,50.40
2018-06-15T11:02:10.825Z,50.60
2018-06-15T11:04:40.336Z,50.80
2018-06-15T11:09:38.967Z,50.80
2018-06-15T11:19:36.121Z,51.10
2018-06-15T11:22:05.859Z,50.60
2018-06-15T11:27:04.531Z,50.70
2018-06-15T11:34:32.285Z,50.50
2018-06-15T11:39:30.919Z,50.80
2018-06-15T11:42:00.496Z,50.70
2018-06-15T11:51:57.661Z,50.10
2018-06-15T11:59:26.011Z,49.40
2018-06-15T12:01:55.555Z,49.60
2018-06-15T12:04:25.110Z,49.60
2018-06-15T12:06:54.866Z,49.30
2018-06-15T12:09:24.388Z,49.30
2018-06-15T12:11:53.925Z,50.00
2018-06-15T12:24:20.096Z,50.20
2018-06-15T12:26:49.611Z,49.60
2018-06-15T12:29:19.149Z,49.60
2018-06-15T12:36:47.395Z,49.10
2018-06-15T12:41:46.045Z,48.10
2018-06-15T12:51:42.807Z,50.10
2018-06-15T12:56:41.430Z,50.80
2018-06-15T13:04:09.159Z,50.60
2018-06-15T13:09:09.192Z,50.00
2018-06-15T13:24:04.181Z,39.90
2018-06-15T13:34:00.939Z,40.10
2018-06-15T13:38:59.542Z,39.90
2018-06-15T13:41:29.385Z,40.40
2018-06-15T13:46:28.041Z,39.80
2018-06-15T13:48:57.557Z,43.00
2018-06-15T13:53:56.159Z,45.10
2018-06-15T13:58:54.852Z,46.50
2018-06-15T14:01:24.368Z,46.40
2018-06-15T14:03:53.902Z,46.70
2018-06-15T14:06:23.444Z,47.00
2018-06-15T14:08:52.980Z,46.40
2018-06-15T14:11:22.508Z,45.80
2018-06-15T14:18:50.203Z,46.10
2018-06-15T14:23:49.209Z,45.40
2018-06-15T14:33:46.640Z,43.50
2018-06-15T14:36:16.156Z,43.60
2018-06-15T14:48:43.032Z,46.20
2018-06-15T14:51:12.566Z,46.50
2018-06-15T15:01:09.521Z,47.10
2018-06-15T15:06:08.144Z,47.40
2018-06-15T15:08:37.680Z,47.40
2018-06-15T15:13:36.268Z,47.50
2018-06-15T15:18:34.888Z,47.60
2018-06-15T15:26:02.841Z,47.70
2018-06-15T15:28:47.663Z,48.10
2018-06-15T15:33:46.270Z,45.60
2018-06-15T15:36:15.808Z,47.40
2018-06-15T15:38:45.975Z,46.00
2018-06-15T15:41:15.588Z,44.30
2018-06-15T15:53:41.644Z,44.70
2018-06-15T16:03:38.809Z,44.70
2018-06-15T16:11:06.544Z,46.00
2018-06-15T16:31:01.823Z,47.60
2018-06-15T16:40:59.023Z,48.50
2018-06-15T16:45:57.714Z,49.10
2018-06-15T16:48:27.255Z,49.20
2018-06-15T16:50:56.836Z,48.70
2018-06-15T16:53:26.375Z,49.50
2018-06-15T17:05:52.241Z,49.50
2018-06-15T17:08:22.342Z,49.30
2018-06-15T17:13:21.122Z,48.20
2018-06-15T17:15:50.643Z,48.60
2018-06-15T17:20:49.263Z,47.80
2018-06-15T17:25:47.949Z,47.40
2018-06-15T17:28:18.747Z,49.30
2018-06-15T17:33:17.400Z,50.30
2018-06-15T17:38:16.073Z,50.50
2018-06-15T17:43:15.339Z,50.30
2018-06-15T17:45:44.942Z,50.70
2018-06-15T17:48:14.471Z,50.80
2018-06-15T17:55:42.826Z,50.00
2018-06-15T18:03:10.545Z,49.90
2018-06-15T18:05:40.236Z,49.90
2018-06-15T18:28:02.705Z,50.10
2018-06-15T18:33:01.448Z,50.60
2018-06-15T18:38:00.232Z,50.60
2018-06-15T18:42:59.048Z,51.00
2018-06-15T18:47:58.081Z,50.80
2018-06-15T18:55:26.745Z,50.60
2018-06-15T19:02:54.553Z,50.70
2018-06-15T19:05:24.113Z,50.60
2018-06-15T19:15:21.005Z,50.70
2018-06-15T19:22:48.927Z,51.20
2018-06-15T19:25:18.463Z,51.10
2018-06-15T19:27:47.997Z,51.10
2018-06-15T19:30:17.519Z,51.20
2018-06-15T19:35:16.142Z,51.50
2018-06-15T19:42:43.897Z,51.70
2018-06-15T19:47:42.569Z,52.70
2018-06-15T19:52:41.211Z,51.70
2018-06-15T20:00:08.927Z,51.20
2018-06-15T20:05:07.705Z,51.40
2018-06-15T20:10:06.285Z,51.10
2018-06-15T20:15:05.371Z,50.90
2018-06-15T20:20:04.028Z,51.00
2018-06-15T20:27:31.825Z,51.70
2018-06-15T20:30:01.355Z,51.70
2018-06-15T20:37:29.066Z,51.40
2018-06-15T20:47:25.957Z,53.60
2018-06-15T21:04:50.495Z,55.90
2018-06-15T21:07:20.013Z,56.40
2018-06-15T21:09:49.572Z,55.60
2018-06-15T21:14:48.287Z,55.80
2018-06-15T21:17:17.855Z,55.40
2018-06-15T21:19:47.400Z,54.10
2018-06-15T21:24:46.283Z,55.30
2018-06-15T21:27:15.853Z,55.70
2018-06-15T21:32:14.486Z,55.90
2018-06-15T21:37:13.120Z,55.80
2018-06-15T21:39:42.635Z,55.60
2018-06-15T21:44:41.795Z,55.60
2018-06-15T21:47:11.321Z,55.50
2018-06-15T21:49:44.299Z,55.40
2018-06-15T21:52:13.861Z,55.40
2018-06-15T21:54:43.393Z,55.30
2018-06-15T21:57:15.023Z,55.30
2018-06-15T21:59:44.545Z,55.30
2018-06-15T22:02:14.083Z,55.10
2018-06-15T22:07:12.733Z,55.10
2018-06-15T22:14:40.441Z,54.80
2018-06-15T22:29:35.539Z,54.80
2018-06-15T22:32:05.283Z,54.70
2018-06-15T22:37:03.811Z,54.60
2018-06-15T22:42:02.484Z,54.50
2018-06-15T22:44:32.042Z,54.60
2018-06-15T22:54:28.813Z,54.80
2018-06-15T23:01:56.504Z,54.90
2018-06-15T23:04:26.070Z,54.90
2018-06-15T23:06:55.604Z,54.90
2018-06-15T23:09:25.231Z,55.00
2018-06-15T23:16:52.935Z,54.90
2018-06-15T23:19:22.482Z,54.90
2018-06-15T23:21:52.087Z,54.90
2018-06-15T23:26:50.703Z,55.00
2018-06-15T23:29:20.232Z,54.90
2018-06-15T23:34:18.871Z,54.90
2018-06-15T23:41:46.638Z,54.90
2018-06-15T23:46:45.319Z,54.90
2018-06-15T23:51:44.129Z,54.90
2018-06-15T23:54:13.644Z,54.90
2018-06-15T23:59:12.242Z,54.90
